Date,TemperatureHighF,TemperatureAvgF,TemperatureLowF,DewpointHighF,DewpointAvgF,DewpointLowF,HumidityHigh,HumidityAvg,HumidityLow,PressureMaxIn,PressureMinIn,WindSpeedMaxMPH,WindSpeedAvgMPH,GustSpeedMaxMPH,PrecipitationSumIn
2013-1-1,39.0,32.9,23.0,30.0,22.5,13.0,82,66,49,29.84,29.66,11,5,15,0.00
2013-1-2,33.0,22.6,15.0,18.0,12.1,7.0,84,64,51,30.00,29.82,68,5,68,0.00
2013-1-3,27.0,15.8,7.0,14.0,4.2,-2.0,89,62,33,30.05,29.93,10,3,11,0.00
2013-1-4,39.0,27.3,15.0,28.0,21.3,14.0,98,80,51,29.93,29.75,11,3,12,0.00
2013-1-5,44.0,32.1,24.0,29.0,24.4,22.0,97,75,45,30.19,29.79,12,3,12,0.00
2013-1-6,44.0,32.1,24.0,34.0,28.8,23.0,100,88,62,30.15,29.86,12,2,12,0.00
2013-1-7,40.0,31.5,23.0,33.0,28.7,23.0,100,90,67,30.33,29.89,12,2,12,0.00
2013-1-8,47.0,33.4,21.0,34.0,28.8,21.0,100,85,53,30.31,30.19,11,3,14,0.00
2013-1-9,45.0,35.3,24.0,40.0,32.3,24.0,100,89,72,30.32,29.94,13,3,13,0.00
2013-1-10,49.0,42.5,35.0,35.0,26.9,24.0,76,55,40,30.45,29.97,19,6,19,0.00
2013-1-11,42.0,35.4,26.0,38.0,32.2,25.0,100,89,74,30.44,30.15,7,1,7,0.00
2013-1-12,47.0,42.6,37.0,47.0,-25.7,-99.9,100,52,97,30.16,30.05,7,1,7,0.00
2013-1-13,51.0,46.5,42.0,-99.9,-99.9,-99.9,0,0,100,30.09,29.94,15,4,15,0.00
2013-1-14,63.0,53.1,44.0,58.0,-31.6,-99.9,100,30,44,30.17,29.83,13,5,13,0.00
2013-1-15,44.0,38.5,33.0,38.0,33.5,31.0,100,83,64,30.23,30.14,7,1,7,0.00
2013-1-16,37.0,34.6,33.0,35.0,-31.2,-99.9,100,49,82,30.17,29.72,6,1,6,0.00
2013-1-17,44.0,37.1,32.0,40.0,0.8,-99.9,100,66,69,30.01,29.77,17,3,17,0.00
2013-1-18,31.0,24.0,17.0,27.0,-76.9,-99.9,100,15,55,30.39,29.98,22,6,22,0.00
2013-1-19,47.0,37.3,19.0,46.0,23.2,-99.9,100,77,61,30.33,29.84,25,9,25,0.00
2013-1-20,56.0,44.0,30.0,46.0,38.1,20.0,100,81,50,29.85,29.49,21,9,21,0.00
2013-1-21,30.0,26.3,22.0,27.0,20.7,15.0,100,80,64,30.03,29.75,17,3,17,0.00
2013-1-22,28.0,21.7,15.0,26.0,4.1,-99.9,100,71,50,30.00,29.67,15,4,15,0.00
2013-1-23,18.0,12.2,8.0,8.0,4.1,1.0,92,70,54,30.06,29.98,14,4,14,0.00
2013-1-24,21.0,11.6,4.0,10.0,-10.1,-99.9,79,59,51,30.07,29.97,17,7,17,0.00
2013-1-25,26.0,17.3,8.0,22.0,-7.2,-99.9,100,56,41,30.22,29.98,13,4,13,0.00
2013-1-26,26.0,18.2,9.0,20.0,3.6,-99.9,100,76,53,30.14,29.92,14,3,14,0.00
2013-1-27,32.0,21.0,12.0,23.0,12.2,-99.9,100,76,54,30.38,30.14,19,6,19,0.00
2013-1-28,32.0,23.0,13.0,31.0,8.8,-99.9,100,86,64,30.38,29.93,7,1,8,0.00
2013-1-29,35.0,31.9,28.0,35.0,13.6,-99.9,100,86,100,30.13,29.93,4,0,4,0.00
2013-1-30,59.0,49.4,34.0,59.0,-69.0,-99.9,100,20,100,30.09,29.44,27,10,27,0.00
2013-1-31,58.0,45.5,33.0,58.0,-22.9,-99.9,100,30,29,29.52,28.95,45,12,45,0.00
2013-2-1,35.0,29.7,24.0,33.0,3.4,-99.9,100,42,20,30.00,29.53,17,7,17,0.00
2013-2-2,30.0,25.3,18.0,23.0,11.2,-99.9,100,59,34,30.18,29.98,14,4,14,0.00
2013-2-3,28.0,24.3,22.0,26.0,-45.8,-99.9,100,40,62,29.98,29.87,6,1,7,0.00
2013-2-4,31.0,24.1,19.0,26.0,-30.7,-99.9,100,43,52,29.87,29.64,14,4,14,0.00
2013-2-5,28.0,25.2,22.0,27.0,9.9,-99.9,100,75,62,29.96,29.86,6,1,6,0.00
2013-2-6,40.0,31.7,26.0,33.0,-20.4,-99.9,100,42,47,30.19,29.84,19,3,19,0.00
2013-2-7,30.0,24.5,18.0,25.0,11.7,7.0,91,59,42,30.45,30.19,11,3,11,0.00
2013-2-8,33.0,31.3,26.0,33.0,-33.8,-99.9,100,50,88,30.40,29.47,32,9,32,0.00
2013-2-9,23.0,19.4,14.0,18.0,13.7,5.0,97,80,45,30.09,29.60,12,1,12,0.00
2013-2-10,39.0,20.2,6.0,39.0,11.4,-99.9,100,85,18,30.31,30.09,3,0,4,0.00
2013-2-11,45.0,32.3,12.0,38.0,-37.2,-99.9,100,51,99,30.28,29.54,12,2,12,0.00
2013-2-12,46.0,39.7,31.0,44.0,13.7,-99.9,100,74,64,29.81,29.54,12,5,14,0.00
2013-2-13,46.0,33.6,25.0,46.0,13.5,-99.9,100,83,69,29.81,29.61,8,1,10,0.00
2013-2-14,45.0,34.4,26.0,34.0,29.2,-99.9,100,86,53,29.94,29.64,9,2,9,0.00
2013-2-15,49.0,36.9,25.0,44.0,11.5,-99.9,100,76,70,29.96,29.86,19,6,19,0.00
2013-2-16,36.0,33.8,31.0,36.0,-22.4,-99.9,100,58,100,29.89,29.62,9,2,9,0.00
2013-2-17,32.0,23.0,19.0,32.0,22.1,10.0,100,96,62,29.62,29.29,35,11,35,0.00
2013-2-18,34.0,22.3,15.0,29.0,15.2,-99.9,99,86,67,30.09,29.59,22,8,22,0.00
2013-2-19,48.0,36.9,16.0,44.0,-15.1,-99.9,100,56,63,30.10,29.53,13,5,13,0.00
2013-2-20,42.0,34.3,26.0,35.0,-12.2,-99.9,100,56,66,29.71,29.48,17,6,17,0.00
2013-2-21,35.0,28.3,26.0,28.0,22.5,20.0,94,79,65,30.06,29.71,19,7,19,0.00
2013-2-22,39.0,32.1,26.0,32.0,28.5,22.0,99,87,70,30.30,30.07,13,4,13,0.00
2013-2-23,40.0,35.2,32.0,36.0,7.6,-99.9,100,75,72,30.27,29.83,8,2,9,0.00
2013-2-24,40.0,36.2,31.0,-99.9,-99.9,-99.9,0,0,100,29.83,29.60,12,5,12,0.00
2013-2-25,42.0,33.8,29.0,42.0,-35.5,-99.9,100,47,100,30.18,29.80,9,2,9,0.00
2013-2-26,46.0,35.8,26.0,42.0,-81.1,-99.9,100,14,100,30.27,30.08,9,2,9,0.00
2013-2-27,42.0,40.9,39.0,39.0,-90.0,-99.9,100,7,100,30.09,29.48,21,7,21,0.00
2013-2-28,48.0,39.1,35.0,-99.9,-99.9,-99.9,0,0,100,29.59,29.45,5,1,5,0.00
2013-3-1,42.0,38.4,36.0,-99.9,-99.9,-99.9,0,0,100,29.60,29.45,9,3,9,0.00
2013-3-2,45.0,40.6,37.0,-99.9,-99.9,-99.9,0,0,100,29.60,29.55,7,2,7,0.00
2013-3-3,44.0,37.4,33.0,-99.9,-99.9,-99.9,0,0,100,29.57,29.49,9,3,9,0.00
2013-3-4,43.0,35.3,31.0,-99.9,-99.9,-99.9,0,0,100,29.65,29.50,21,7,21,0.00
2013-3-5,43.0,36.6,31.0,-99.9,-99.9,-99.9,0,0,100,29.99,29.65,16,4,16,0.00
2013-3-6,41.0,37.8,32.0,-99.9,-99.9,-99.9,0,0,100,30.03,29.95,29,11,29,0.00
2013-3-7,37.0,34.1,32.0,-99.9,-99.9,-99.9,0,0,100,29.96,29.88,29,12,29,0.00
2013-3-8,40.0,34.2,32.0,39.0,-97.0,-99.9,100,2,100,30.04,29.83,22,8,22,0.00
2013-3-9,41.0,35.4,27.0,41.0,-44.6,-99.9,100,40,100,30.27,30.04,17,6,17,0.00
2013-3-10,43.0,34.4,27.0,43.0,-21.7,-99.9,100,57,100,30.33,30.25,7,2,7,0.00
2013-3-11,51.0,41.1,33.0,48.0,-26.5,-99.9,100,54,97,30.26,30.09,12,6,12,0.00
2013-3-12,55.0,49.0,38.0,52.0,-86.9,-99.9,100,9,100,30.10,29.68,17,7,17,0.00
2013-3-13,54.0,46.0,32.0,44.0,-90.8,-99.9,100,6,100,29.72,29.63,11,4,11,0.00
2013-3-14,36.0,33.0,24.0,30.0,-97.8,-99.9,97,2,97,29.75,29.64,18,5,18,0.00
2013-3-15,41.0,30.1,21.0,-99.9,-99.9,-99.9,0,0,100,29.80,29.58,18,7,18,0.00
2013-3-16,41.0,34.4,28.0,-99.9,-99.9,-99.9,0,0,100,29.80,29.60,11,3,11,0.00
2013-3-17,40.0,31.9,24.0,-99.9,-99.9,-99.9,0,0,100,30.23,29.80,13,3,13,0.00
2013-3-18,38.0,29.7,20.0,-99.9,-99.9,-99.9,0,0,100,30.38,30.19,11,3,11,0.00
2013-3-19,38.0,34.0,29.0,-99.9,-99.9,-99.9,0,0,100,30.19,29.49,21,8,21,0.00
2013-3-20,41.0,32.3,26.0,-99.9,-99.9,-99.9,0,0,100,29.75,29.60,17,6,17,0.00
2013-3-21,38.0,31.0,23.0,-99.9,-99.9,-99.9,0,0,100,29.76,29.54,9,2,9,0.00
2013-3-22,41.0,34.6,29.0,-99.9,-99.9,-99.9,0,0,100,29.67,29.53,12,4,12,0.00
2013-3-23,44.0,36.4,29.0,-99.9,-99.9,-99.9,0,0,100,29.71,29.57,19,7,19,0.00
2013-3-24,49.0,38.3,30.0,-99.9,-99.9,-99.9,0,0,100,29.75,29.66,14,3,14,0.00
2013-3-25,46.0,38.0,30.0,-99.9,-99.9,-99.9,0,0,100,29.70,29.44,17,5,17,0.00
2013-3-26,51.0,41.2,34.0,-99.9,-99.9,-99.9,0,0,100,29.70,29.44,24,5,24,0.00
2013-3-27,53.0,42.8,29.0,-99.9,-99.9,-99.9,0,0,100,29.79,29.67,12,4,12,0.00
2013-3-28,49.0,42.8,38.0,-99.9,-99.9,-99.9,0,0,100,29.94,29.79,11,4,11,0.00
2013-3-29,50.0,44.7,41.0,-99.9,-99.9,-99.9,0,0,100,29.97,29.93,2,0,4,0.00
2013-3-30,57.0,46.1,34.0,-99.9,-99.9,-99.9,0,0,100,30.03,29.94,10,3,10,0.00
2013-3-31,59.0,44.2,28.0,-99.9,-99.9,-99.9,0,0,100,30.06,29.71,24,5,24,0.00
2013-4-1,60.0,48.7,37.0,-99.9,-99.9,-99.9,0,0,100,29.72,29.45,19,7,19,0.00
2013-4-2,42.0,35.5,30.0,-99.9,-99.9,-99.9,0,0,100,29.88,29.72,22,7,22,0.00
2013-4-3,47.0,37.7,31.0,-99.9,-99.9,-99.9,0,0,100,30.09,29.87,23,8,23,0.00
2013-4-4,54.0,40.6,30.0,-99.9,-99.9,-99.9,0,0,100,30.22,30.01,19,6,19,0.00
2013-4-5,59.0,45.8,38.0,-99.9,-99.9,-99.9,0,0,100,30.01,29.57,13,6,13,0.00
2013-4-6,48.0,39.4,31.0,-99.9,-99.9,-99.9,0,0,100,30.27,29.78,21,5,21,0.00
2013-4-7,48.0,34.2,26.0,-99.9,-99.9,-99.9,0,0,100,30.27,29.96,12,3,12,0.00
2013-4-8,65.0,52.5,45.0,-99.9,-99.9,-99.9,0,0,100,30.05,29.89,14,5,14,0.00
2013-4-9,74.0,55.8,46.0,-99.9,-99.9,-99.9,0,0,100,30.03,29.79,15,5,15,0.00
2013-4-10,64.0,51.4,45.0,-99.9,-99.9,-99.9,0,0,100,29.96,29.81,9,3,9,0.00
2013-4-11,53.0,47.6,43.0,-99.9,-99.9,-99.9,0,0,100,30.07,29.75,13,4,13,0.00
2013-4-12,43.0,40.2,38.0,-99.9,-99.9,-99.9,0,0,100,30.10,29.78,13,6,14,0.00
2013-4-13,51.0,44.3,38.0,-99.9,-99.9,-99.9,0,0,100,29.87,29.75,8,3,8,0.00
2013-4-14,54.0,45.6,37.0,-99.9,-99.9,-99.9,0,0,100,30.14,29.86,13,3,13,0.00
2013-4-15,55.0,44.6,32.0,-99.9,-99.9,-99.9,0,0,100,30.33,30.13,9,3,9,0.00
2013-4-16,62.0,50.3,35.0,-99.9,-99.9,-99.9,0,0,100,30.35,30.03,21,9,21,0.00
2013-4-17,68.0,58.5,45.0,-99.9,-99.9,-99.9,0,0,100,30.25,30.00,21,5,21,0.00
2013-4-18,62.0,50.8,36.0,-99.9,-99.9,-99.9,0,0,100,30.36,30.11,17,6,17,0.00
2013-4-19,71.0,62.3,52.0,68.0,-98.7,-99.9,100,1,100,30.11,29.64,28,11,28,0.00
2013-4-20,64.0,55.3,48.0,-99.9,-99.9,-99.9,0,0,100,30.14,29.57,21,7,21,0.00
2013-4-21,52.0,43.1,34.0,-99.9,-99.9,-99.9,0,0,100,30.60,30.13,204,7,204,0.00
2013-4-22,51.0,41.4,31.0,-99.9,-99.9,-99.9,0,0,100,30.68,30.52,18,6,18,0.00
2013-4-23,44.0,42.0,40.0,-99.9,-99.9,-99.9,0,0,100,30.52,30.01,16,6,16,0.00
2013-4-24,70.0,52.4,42.0,-99.9,-99.9,-99.9,0,0,100,30.03,29.76,19,9,19,0.00
2013-4-25,65.0,56.2,48.0,-99.9,-99.9,-99.9,0,0,100,30.12,29.80,16,6,16,0.00
2013-4-26,56.0,49.4,43.0,-99.9,-99.9,-99.9,0,0,100,30.35,30.30,11,4,11,0.00
2013-4-27,63.0,50.9,37.0,-99.9,-99.9,-99.9,0,0,100,30.35,30.24,11,3,11,0.00
2013-4-28,67.0,53.1,36.0,-99.9,-99.9,-99.9,0,0,100,30.27,30.17,12,4,12,0.00
2013-4-29,67.0,55.2,42.0,-99.9,-99.9,-99.9,0,0,100,30.22,30.14,14,4,14,0.00
2013-4-30,67.0,52.9,38.0,-99.9,-99.9,-99.9,0,0,100,30.30,30.19,11,2,11,0.00
2013-5-1,67.0,51.9,36.0,-99.9,-99.9,-99.9,0,0,100,30.41,30.30,9,2,9,0.00
2013-5-2,75.0,53.5,40.0,-99.9,-99.9,-99.9,0,0,100,30.40,30.30,9,3,11,0.00
2013-5-3,56.0,47.7,41.0,-99.9,-99.9,-99.9,0,0,100,30.45,30.30,16,4,16,0.00
2013-5-4,56.0,45.9,37.0,-99.9,-99.9,-99.9,0,0,100,30.30,30.25,17,3,17,0.00
2013-5-5,58.0,46.5,35.0,-99.9,-99.9,-99.9,0,0,100,30.26,30.20,12,3,12,0.00
2013-5-6,66.0,53.2,38.0,-99.9,-99.9,-99.9,0,0,100,30.23,30.09,11,2,11,0.00
2013-5-7,76.0,61.0,44.0,-99.9,-99.9,-99.9,0,0,100,30.12,30.03,14,3,14,0.00
2013-5-8,72.0,62.5,52.0,-99.9,-99.9,-99.9,0,0,100,30.13,29.99,15,4,15,0.00
2013-5-9,68.0,61.2,58.0,-99.9,-99.9,-99.9,0,0,100,29.99,29.83,6,2,6,0.00
2013-5-10,74.0,68.7,63.0,-99.9,-99.9,-99.9,0,0,100,29.88,29.85,10,5,10,0.00
2013-5-11,71.0,62.8,59.0,-99.9,-99.9,-99.9,0,0,100,29.87,29.65,22,8,22,0.00
2013-5-12,72.0,61.6,50.0,-99.9,-99.9,-99.9,0,0,100,29.75,29.51,19,4,19,0.00
2013-5-13,61.0,51.5,38.0,-99.9,-99.9,-99.9,0,0,100,29.95,29.75,11,3,11,0.00
2013-5-14,58.0,50.9,40.0,-99.9,-99.9,-99.9,0,0,100,29.98,29.91,10,3,10,0.00
2013-5-15,65.0,50.2,33.0,-99.9,-99.9,-99.9,0,0,100,30.00,29.62,23,6,23,0.00
2013-5-16,82.0,62.1,50.0,-99.9,-99.9,-99.9,0,0,100,29.72,29.58,21,4,21,0.00
2013-5-17,68.0,58.1,48.0,-99.9,-99.9,-99.9,0,0,100,30.15,29.72,12,3,12,0.00
2013-5-18,71.0,58.7,42.0,-99.9,-99.9,-99.9,0,0,100,30.24,30.15,11,3,11,0.00
2013-5-19,70.0,58.2,47.0,-99.9,-99.9,-99.9,0,0,100,30.28,30.18,11,3,11,0.00
2013-5-20,84.0,67.9,56.0,-99.9,-99.9,-99.9,0,0,100,30.18,29.85,10,4,10,0.00
2013-5-21,82.0,62.5,52.0,-99.9,-99.9,-99.9,0,0,100,29.93,29.80,14,4,14,0.00
2013-5-22,67.0,56.8,51.0,-99.9,-99.9,-99.9,0,0,100,29.96,29.83,12,3,12,0.00
2013-5-23,75.0,66.0,57.0,-99.9,-99.9,-99.9,0,0,100,29.87,29.78,26,8,26,0.00
2013-5-24,69.0,63.7,52.0,-99.9,-99.9,-99.9,0,0,100,29.78,29.61,12,5,14,0.00
2013-5-25,54.0,49.7,42.0,-99.9,-99.9,-99.9,0,0,100,29.73,29.62,12,5,12,0.00
2013-5-26,60.0,49.3,40.0,-99.9,-99.9,-99.9,0,0,100,30.00,29.65,14,6,14,0.00
2013-5-27,73.0,57.1,40.0,-99.9,-99.9,-99.9,0,0,100,30.10,30.00,17,3,17,0.00
2013-5-28,74.0,59.5,42.0,-99.9,-99.9,-99.9,0,0,100,30.17,30.10,9,3,9,0.00
2013-5-29,73.0,63.1,59.0,-99.9,-99.9,-99.9,0,0,100,30.14,29.94,11,4,11,0.00
2013-5-30,88.0,75.9,64.0,-99.9,-99.9,-99.9,0,0,100,30.02,29.94,18,3,18,0.00
2013-5-31,92.0,78.9,63.0,-99.9,-99.9,-99.9,0,0,100,30.02,29.88,10,3,10,0.00
2013-6-1,89.0,77.2,66.0,-99.9,-99.9,-99.9,0,0,100,29.93,29.82,18,7,18,0.00
2013-6-2,84.0,73.6,66.0,-99.9,-99.9,-99.9,0,0,100,29.85,29.71,19,10,19,0.00
2013-6-3,72.0,67.4,64.0,-99.9,-99.9,-99.9,0,0,100,29.79,29.71,15,4,15,0.00
2013-6-4,72.0,62.3,52.0,-99.9,-99.9,-99.9,0,0,100,30.03,29.75,11,4,11,0.00
2013-6-5,65.0,52.7,47.0,-99.9,-99.9,-99.9,0,0,100,30.11,30.03,8,1,8,0.00
2013-6-6,74.0,63.6,54.0,-99.9,-99.9,-99.9,0,0,100,30.13,30.04,12,4,12,0.00
2013-6-7,60.0,56.8,54.0,-99.9,-99.9,-99.9,0,0,100,30.06,29.74,13,3,13,0.00
2013-6-8,78.0,63.5,54.0,-99.9,-99.9,-99.9,0,0,100,29.93,29.52,11,4,11,0.00
2013-6-9,80.0,68.1,57.0,-99.9,-99.9,-99.9,0,0,100,30.10,29.93,12,2,12,0.00
2013-6-10,70.0,61.5,54.0,-99.9,-99.9,-99.9,0,0,100,30.14,29.96,10,2,10,0.00
2013-6-11,68.0,60.8,55.0,-99.9,-99.9,-99.9,0,0,100,29.96,29.52,9,3,9,0.00
2013-6-12,62.0,58.2,55.0,-99.9,-99.9,-99.9,0,0,100,29.75,29.53,9,3,9,0.00
2013-6-13,67.0,57.5,51.0,-99.9,-99.9,-99.9,0,0,100,29.75,29.61,7,2,7,0.00
2013-6-14,72.0,57.9,53.0,-99.9,-99.9,-99.9,0,0,100,29.69,29.55,14,5,14,0.00
2013-6-15,79.0,66.8,55.0,-99.9,-99.9,-99.9,0,0,100,29.88,29.68,11,2,11,0.00
2013-6-16,70.0,55.7,50.0,-99.9,-99.9,-99.9,0,0,100,29.88,29.86,4,1,4,0.00
2013-6-17,86.0,74.9,62.0,-99.9,-99.9,-99.9,0,0,100,29.85,29.72,14,5,14,0.00
2013-6-18,75.0,62.7,59.0,-99.9,-99.9,-99.9,0,0,100,29.87,29.83,9,1,9,0.00
2013-6-19,59.0,57.6,56.0,-99.9,-99.9,-99.9,0,0,100,30.09,30.09,4,2,4,0.00
2013-6-20,55.0,51.8,49.0,-99.9,-99.9,-99.9,0,0,100,30.18,30.09,0,0,0,0.00
2013-6-23,66.0,65.7,65.0,-99.9,-99.9,-99.9,0,0,100,30.10,30.08,6,4,6,0.00
2013-6-24,70.0,70.0,70.0,-99.9,-99.9,-99.9,0,0,100,29.88,29.87,2,2,2,0.00
2013-6-25,70.0,68.8,68.0,-99.9,-99.9,-99.9,0,0,100,29.87,29.84,4,2,4,0.00
2013-6-26,74.0,71.3,68.0,-99.9,-99.9,-99.9,0,0,100,29.79,29.67,6,1,6,0.00
2013-6-27,67.0,65.9,64.0,-99.9,-99.9,-99.9,0,0,100,29.79,29.77,6,2,6,0.00
2013-7-1,74.0,73.7,73.0,-99.9,-99.9,-99.9,0,0,100,30.01,29.98,7,4,7,0.00
2013-7-26,67.0,67.0,67.0,-99.9,-99.9,-99.9,0,0,100,29.97,29.97,0,0,2,0.00
2013-7-30,65.0,65.0,65.0,-99.9,-99.9,-99.9,0,0,100,30.07,30.07,0,0,0,0.00
2013-7-31,74.0,69.4,66.0,-99.9,-99.9,-99.9,0,0,100,30.11,30.03,2,1,4,0.00
2013-8-1,77.0,65.8,62.0,-99.9,-99.9,-99.9,0,0,100,30.01,29.90,9,2,9,0.00
2013-8-2,81.0,70.3,66.0,-99.9,-99.9,-99.9,0,0,100,29.81,29.78,0,0,4,0.00
2013-8-3,68.0,68.0,68.0,-99.9,-99.9,-99.9,0,0,100,29.83,29.83,2,2,4,0.00
2013-11-27,56.0,51.8,46.0,-99.9,-99.9,-99.9,0,0,100,29.24,29.22,7,7,7,0.00
2013-11-28,25.0,25.0,25.0,-99.9,-99.9,-99.9,0,0,100,30.41,30.41,1,1,0,0.00
2013-11-29,25.0,24.5,24.0,-99.9,-99.9,-99.9,0,0,100,30.41,30.41,2,2,2,0.00
2013-11-30,22.0,22.0,22.0,-99.9,-99.9,-99.9,0,0,100,30.71,30.69,2,1,2,0.00